Time;durP1;ratioP1;P1;durP2;ratioP2;P2;SDS_P1;SDS_P2;PMS_P1;PMS_P2;Temp;Humidity;BMP_temperature;BMP_pressure;BME280_temperature;BME280_humidity;BME280_pressure;Samples;Min_cycle;Max_cycle;Signal;HPM_P1;HPM_P2
2022/05/12 00:03:28;;;;;;;4.20;3.80;;;;;;;17.36;51.13;98350.70;219356;1274;24278;-69
2022/05/12 00:08:36;;;;;;;5.50;3.50;;;;;;;17.31;51.25;98347.17;219014;1274;203936;-69
2022/05/12 00:13:52;;;;;;;5.10;3.50;;;;;;;17.26;51.30;98353.36;219127;1277;24233;-69
2022/05/12 00:19:05;;;;;;;5.50;3.30;;;;;;;17.22;51.33;98344.13;218970;1274;22775;-70
2022/05/12 00:24:12;;;;;;;4.00;3.60;;;;;;;17.27;51.06;98341.79;222568;1275;25805;-69
2022/05/12 00:29:17;;;;;;;4.90;3.80;;;;;;;17.31;50.97;98336.18;219103;1275;22566;-69
2022/05/12 00:34:40;;;;;;;4.00;3.70;;;;;;;17.28;50.89;98332.63;218751;1277;25648;-70
2022/05/12 00:40:01;;;;;;;5.00;3.70;;;;;;;17.21;50.92;98330.41;220429;1278;22580;-70
2022/05/12 00:45:26;;;;;;;4.90;3.60;;;;;;;17.08;51.08;98329.80;218945;1274;26229;-70
2022/05/12 00:50:47;;;;;;;3.80;3.40;;;;;;;16.95;51.28;98328.04;219000;1274;25315;-70
2022/05/12 00:56:18;;;;;;;5.40;3.60;;;;;;;16.82;51.51;98324.75;218685;1275;24421;-70
2022/05/12 01:01:20;;;;;;;3.60;3.30;;;;;;;16.74;51.69;98319.73;219632;1274;22606;-70
2022/05/12 01:06:28;;;;;;;5.50;3.30;;;;;;;16.76;51.63;98315.33;220538;1274;22550;-69
2022/05/12 01:11:40;;;;;;;4.10;2.90;;;;;;;16.86;51.28;98308.43;218866;1274;23788;-70
2022/05/12 01:16:52;;;;;;;5.20;3.10;;;;;;;17.01;50.92;98308.98;221493;1274;24225;-70
2022/05/12 01:21:58;;;;;;;6.30;3.40;;;;;;;17.17;50.51;98317.56;221269;1274;22586;-69
2022/05/12 01:32:47;;;;;;;3.90;3.30;;;;;;;17.18;50.26;98308.91;218794;1275;22549;-69
2022/05/12 01:37:55;;;;;;;4.30;3.20;;;;;;;17.08;50.43;98304.62;220542;1274;22557;-70
2022/05/12 01:43:05;;;;;;;4.50;3.50;;;;;;;16.97;50.55;98304.52;220652;1274;22559;-69
2022/05/12 01:48:22;;;;;;;4.70;3.60;;;;;;;16.84;50.77;98299.55;219400;1274;23455;-70
2022/05/12 01:53:30;;;;;;;6.50;3.80;;;;;;;16.69;51.09;98303.58;220564;1275;22585;-73
2022/05/12 01:58:38;;;;;;;5.10;3.80;;;;;;;16.55;51.27;98302.17;220501;1277;22560;-70
2022/05/12 02:03:45;;;;;;;5.80;4.10;;;;;;;16.45;51.65;98303.71;220917;1277;22570;-70
2022/05/12 02:08:53;;;;;;;4.50;3.50;;;;;;;16.35;51.90;98302.23;220336;1276;22711;-70
2022/05/12 02:14:01;;;;;;;5.70;3.90;;;;;;;16.26;52.02;98303.90;220487;1276;22594;-70
2022/05/12 02:19:18;;;;;;;4.80;4.10;;;;;;;16.17;52.26;98306.01;220718;1275;22606;-70
2022/05/12 02:24:29;;;;;;;4.00;3.50;;;;;;;16.10;52.40;98303.61;220723;1276;25446;-70
2022/05/12 02:29:39;;;;;;;7.20;3.90;;;;;;;16.04;52.62;98303.36;220734;1274;25267;-70
2022/05/12 02:34:42;;;;;;;4.30;3.70;;;;;;;16.04;52.77;98299.56;218944;1275;25386;-70
2022/05/12 02:39:44;;;;;;;4.10;3.60;;;;;;;16.05;53.03;98296.27;220495;1274;22556;-70
2022/05/12 02:44:47;;;;;;;5.60;3.70;;;;;;;16.15;53.17;98296.67;220605;1276;22571;-69
2022/05/12 02:49:53;;;;;;;4.90;3.40;;;;;;;16.31;53.10;98289.62;218739;1276;22828;-69
2022/05/12 02:54:56;;;;;;;4.20;3.50;;;;;;;16.47;52.90;98290.49;219006;1274;22747;-69
2022/05/12 02:59:58;;;;;;;5.20;3.70;;;;;;;16.63;52.93;98296.06;219086;1276;22579;-69
2022/05/12 03:05:16;;;;;;;8.10;5.60;;;;;;;16.79;52.74;98291.38;218992;1276;22562;-70
2022/05/12 03:10:56;;;;;;;4.10;3.40;;;;;;;16.89;52.43;98286.76;218959;1274;22801;-70
2022/05/12 03:16:49;;;;;;;4.40;3.60;;;;;;;16.92;52.46;98287.99;218723;1274;22564;-70
2022/05/12 03:22:30;;;;;;;5.00;3.50;;;;;;;16.99;52.50;98281.46;218686;1276;24238;-70
2022/05/12 03:28:09;;;;;;;6.10;3.70;;;;;;;17.02;52.50;98282.80;219277;1274;24364;-69
2022/05/12 03:40:52;;;;;;;4.30;3.90;;;;;;;17.23;52.54;98277.81;218819;1275;24411;-70
2022/05/12 03:47:15;;;;;;;4.20;3.70;;;;;;;17.44;52.41;98281.40;220312;1274;24235;-68
2022/05/12 03:53:01;;;;;;;;;;;;;;;;;;;;;
2022/05/12 03:58:40;;;;;;;5.40;4.20;;;;;;;17.87;51.95;98275.32;218881;1277;25462;-69
2022/05/12 04:03:45;;;;;;;4.50;3.40;;;;;;;18.01;51.83;98277.83;218812;1274;24562;-69
2022/05/12 04:14:28;;;;;;;4.40;3.30;;;;;;;18.22;51.39;98289.34;221728;1274;25267;-69
2022/05/12 04:19:40;;;;;;;6.50;4.10;;;;;;;18.31;51.23;98292.48;219681;1274;22557;-69
2022/05/12 04:24:45;;;;;;;6.70;3.70;;;;;;;18.37;51.14;98294.94;219416;1274;22556;-69
2022/05/12 04:29:50;;;;;;;4.10;3.70;;;;;;;18.42;51.21;98297.86;220737;1274;24153;-69
2022/05/12 04:35:14;;;;;;;4.70;3.80;;;;;;;18.50;51.24;98302.52;218545;1274;22601;-69
2022/05/12 04:40:29;;;;;;;4.80;3.50;;;;;;;18.59;51.21;98306.30;219223;1274;25383;-70
2022/05/12 04:45:32;;;;;;;5.60;3.50;;;;;;;18.68;51.23;98309.66;220975;1274;25359;-70
2022/05/12 04:50:40;;;;;;;4.20;3.80;;;;;;;18.81;51.27;98310.42;220250;1274;22749;-70
2022/05/12 04:55:44;;;;;;;5.40;4.00;;;;;;;18.95;51.48;98317.98;220251;1275;22568;-70
2022/05/12 05:01:00;;;;;;;5.00;4.00;;;;;;;19.17;51.29;98315.17;219579;1274;22646;-70
2022/05/12 05:06:12;;;;;;;4.00;3.70;;;;;;;19.36;51.02;98309.10;220278;1274;22534;-71
2022/05/12 05:11:17;;;;;;;4.30;3.90;;;;;;;19.53;50.97;98306.95;219476;1274;22560;-70
2022/05/12 05:16:20;;;;;;;6.00;4.20;;;;;;;19.74;50.81;98304.70;219263;1274;22755;-70
2022/05/12 05:21:22;;;;;;;5.10;3.50;;;;;;;19.96;50.45;98308.59;220366;1274;22566;-69
2022/05/12 05:26:38;;;;;;;6.60;3.70;;;;;;;20.21;50.12;98314.84;218995;1276;24295;-70
2022/05/12 05:31:41;;;;;;;4.20;3.50;;;;;;;20.49;49.66;98308.96;219094;1276;24238;-71
2022/05/12 05:36:45;;;;;;;4.50;3.50;;;;;;;20.73;49.27;98311.90;220521;1276;22547;-70
2022/05/12 05:41:48;;;;;;;5.00;4.30;;;;;;;20.95;49.05;98302.88;221475;1274;22494;-69
2022/05/12 05:46:51;;;;;;;4.50;3.70;;;;;;;21.13;48.62;98302.87;222669;1273;22635;-70
2022/05/12 05:57:22;;;;;;;4.30;3.50;;;;;;;21.36;47.96;98329.91;221426;1273;24357;-70
2022/05/12 06:02:25;;;;;;;3.80;3.50;;;;;;;21.53;47.86;98327.55;220924;1274;22622;-70
2022/05/12 06:07:39;;;;;;;5.10;3.80;;;;;;;21.80;47.61;98330.88;221352;1273;22547;-69
2022/05/12 06:12:41;;;;;;;4.80;4.10;;;;;;;22.11;46.69;98325.63;219611;1274;22580;-68
2022/05/12 06:17:46;;;;;;;4.50;4.10;;;;;;;22.48;46.48;98323.23;222125;1274;22559;-68
2022/05/12 06:22:57;;;;;;;4.90;3.90;;;;;;;22.91;46.05;98321.23;218605;1274;22576;-69
2022/05/12 06:28:06;;;;;;;4.80;3.70;;;;;;;23.29;45.31;98315.81;218808;1274;22708;-69
2022/05/12 06:33:18;;;;;;;4.80;4.40;;;;;;;23.60;44.46;98316.85;218822;1274;22546;-68
2022/05/12 06:38:20;;;;;;;4.60;4.20;;;;;;;23.87;43.63;98314.25;218871;1274;22633;-68
2022/05/12 06:43:23;;;;;;;4.70;4.30;;;;;;;24.02;42.82;98320.85;218496;1274;22740;-69
2022/05/12 06:48:27;;;;;;;4.70;4.20;;;;;;;24.03;42.45;98331.64;219296;1273;25320;-68
2022/05/12 06:53:30;;;;;;;6.20;4.60;;;;;;;24.06;43.03;98335.23;220243;1274;24335;-69
2022/05/12 06:58:32;;;;;;;5.90;5.30;;;;;;;24.15;43.31;98340.88;220721;1274;22538;-68
2022/05/12 07:03:34;;;;;;;4.90;4.40;;;;;;;24.23;42.74;98344.16;218586;1274;22571;-70
2022/05/12 07:08:42;;;;;;;6.90;4.40;;;;;;;24.21;42.96;98343.14;218751;1273;25408;-70
2022/05/12 07:13:49;;;;;;;4.70;4.30;;;;;;;24.40;42.62;98344.08;218631;1274;23004;-71
2022/05/12 07:18:52;;;;;;;5.20;4.70;;;;;;;24.72;42.55;98352.77;218519;1274;22538;-72
2022/05/12 07:29:34;;;;;;;4.80;4.30;;;;;;;24.87;41.82;98359.78;221098;1273;22831;-73
2022/05/12 07:34:46;;;;;;;4.90;4.40;;;;;;;24.73;41.45;98368.88;221052;1274;24824;-71
2022/05/12 07:39:48;;;;;;;6.60;4.70;;;;;;;24.53;41.47;98370.05;218551;1274;28838;-70
2022/05/12 07:44:51;;;;;;;5.80;5.30;;;;;;;24.36;41.65;98375.75;218871;1274;22534;-70
2022/05/12 07:49:56;;;;;;;4.00;3.70;;;;;;;24.31;42.25;98374.12;218914;1274;23021;-69
2022/05/12 07:54:58;;;;;;;4.60;4.20;;;;;;;24.46;42.05;98365.98;222183;1274;22622;-71
2022/05/12 08:00:08;;;;;;;5.20;4.60;;;;;;;24.63;42.31;98365.36;220745;1276;24090;-71
2022/05/12 08:05:19;;;;;;;4.70;4.30;;;;;;;24.80;42.23;98369.04;220846;1274;22747;-70
2022/05/12 08:10:32;;;;;;;4.60;4.20;;;;;;;24.93;42.16;98364.94;218615;1274;22603;-70
2022/05/12 08:15:34;;;;;;;4.90;4.50;;;;;;;25.07;41.69;98369.13;220279;1274;22793;-70
2022/05/12 08:20:44;;;;;;;4.70;4.20;;;;;;;25.27;41.19;98364.07;220574;1274;22753;-71
2022/05/12 08:25:48;;;;;;;4.70;4.30;;;;;;;25.49;41.03;98360.23;221723;1274;25412;-70
2022/05/12 08:30:52;;;;;;;5.00;3.80;;;;;;;25.74;40.70;98363.71;221662;1274;22669;-70
2022/05/12 08:35:57;;;;;;;4.20;3.80;;;;;;;25.92;39.82;98374.19;220976;1274;23126;-71
2022/05/12 08:41:16;;;;;;;4.10;3.80;;;;;;;26.10;39.34;98371.77;220856;1274;24266;-70
2022/05/12 08:46:22;;;;;;;5.20;3.70;;;;;;;26.15;39.28;98376.34;220861;1274;22573;-71
2022/05/12 08:51:30;;;;;;;4.40;4.00;;;;;;;26.08;38.75;98374.43;221245;1274;22589;-71
2022/05/12 08:56:40;;;;;;;6.80;3.60;;;;;;;26.03;37.62;98385.13;221137;1273;25229;-71
2022/05/12 09:02:11;;;;;;;5.10;4.30;;;;;;;25.91;37.90;98386.35;222880;1274;22759;-68
2022/05/12 09:07:32;;;;;;;4.60;3.80;;;;;;;25.95;37.76;98392.98;220625;1276;22524;-74
2022/05/12 09:12:52;;;;;;;5.00;3.90;;;;;;;26.06;37.62;98393.17;220842;1276;24429;-70
2022/05/12 09:18:03;;;;;;;4.90;3.80;;;;;;;26.11;37.46;98396.14;220725;1274;23792;-71
2022/05/12 09:23:07;;;;;;;4.60;3.70;;;;;;;26.14;37.50;98406.07;221610;1274;22555;-75
2022/05/12 09:28:15;;;;;;;4.10;3.70;;;;;;;26.14;37.49;98409.98;221760;1274;22694;-70
2022/05/12 09:33:36;;;;;;;3.80;3.40;;;;;;;26.21;37.36;98418.97;218712;1274;22635;-71
2022/05/12 09:38:44;;;;;;;5.80;4.10;;;;;;;26.29;37.04;98419.63;221099;1274;24264;-71
2022/05/12 09:43:51;;;;;;;5.00;3.80;;;;;;;26.51;36.73;98423.52;220832;1275;22562;-71
2022/05/12 09:49:20;;;;;;;6.50;4.10;;;;;;;26.74;36.84;98423.91;223173;1276;25065;-71
2022/05/12 09:54:29;;;;;;;4.90;4.40;;;;;;;26.97;36.06;98430.71;220894;1274;22561;-71
2022/05/12 09:59:42;;;;;;;4.10;3.70;;;;;;;26.90;36.18;98427.47;222575;1274;22587;-71
2022/05/12 10:10:30;;;;;;;11.00;4.00;;;;;;;26.95;36.40;98422.25;220994;1273;22665;-75
2022/05/12 10:15:35;;;;;;;4.00;3.70;;;;;;;26.85;36.42;98429.40;221086;1274;23069;-74
2022/05/12 10:20:43;;;;;;;4.20;3.80;;;;;;;27.05;36.78;98419.87;221391;1273;23040;-75
2022/05/12 10:25:57;;;;;;;5.20;3.50;;;;;;;27.10;36.78;98426.34;222091;1273;23095;-76
2022/05/12 10:31:31;;;;;;;4.30;2.70;;;;;;;26.93;35.92;98434.13;221002;1274;22550;-76
2022/05/12 10:37:09;;;;;;;8.50;3.20;;;;;;;26.91;34.91;98441.20;221240;1276;24362;-76
2022/05/12 10:42:33;;;;;;;6.80;2.90;;;;;;;27.14;35.11;98441.54;220958;1274;24233;-75
2022/05/12 10:47:44;;;;;;;6.70;2.70;;;;;;;27.17;33.71;98444.80;220886;1273;24284;-74
2022/05/12 10:53:21;;;;;;;9.50;3.00;;;;;;;26.74;33.50;98459.79;220920;1275;24461;-75
2022/05/12 10:58:56;;;;;;;3.60;2.60;;;;;;;26.38;33.77;98465.52;219955;1276;22927;-75
2022/05/12 11:04:06;;;;;;;3.60;2.50;;;;;;;26.15;33.76;98459.94;221033;1274;24323;-74
2022/05/12 11:09:34;;;;;;;5.20;2.70;;;;;;;26.15;33.76;98458.14;221322;1276;22579;-75
2022/05/12 11:14:57;;;;;;;3.50;2.80;;;;;;;25.97;33.64;98460.88;220906;1275;25371;-71
2022/05/12 11:20:25;;;;;;;7.90;3.20;;;;;;;25.84;34.02;98459.83;221011;1274;22562;-75
2022/05/12 11:26:04;;;;;;;5.50;3.20;;;;;;;26.01;33.69;98469.48;221723;1274;22605;-74
2022/05/12 11:31:24;;;;;;;6.30;3.20;;;;;;;26.12;33.57;98474.55;222648;1274;22573;-75
2022/05/12 11:36:46;;;;;;;6.10;3.30;;;;;;;26.33;35.08;98472.00;221100;1274;24237;-76
2022/05/12 11:48:10;;;;;;;6.50;3.50;;;;;;;26.56;36.35;98474.50;221003;1276;25268;-77
2022/05/12 11:53:25;;;;;;;7.30;4.10;;;;;;;26.44;36.84;98486.75;221270;1274;23583;-75
2022/05/12 11:58:43;;;;;;;8.70;4.10;;;;;;;26.26;37.27;98487.88;221264;1275;24770;-76
2022/05/12 12:04:00;;;;;;;5.20;4.00;;;;;;;26.13;37.56;98491.64;221050;1274;22537;-76
2022/05/12 12:09:48;;;;;;;7.40;4.10;;;;;;;26.05;37.42;98502.88;220871;1274;296603;-73
2022/05/12 12:15:34;;;;;;;5.80;3.90;;;;;;;25.74;37.59;98522.80;221169;1274;25211;-70
2022/05/12 12:20:36;;;;;;;6.20;4.20;;;;;;;25.54;38.52;98530.79;221195;1273;22820;-70
2022/05/12 12:25:41;;;;;;;6.60;4.00;;;;;;;25.44;38.87;98535.11;221081;1276;25502;-69
2022/05/12 12:30:56;;;;;;;7.50;4.00;;;;;;;25.43;39.32;98544.42;218686;1274;24685;-70
2022/05/12 12:36:04;;;;;;;5.70;3.50;;;;;;;25.41;39.46;98546.15;221254;1274;22574;-70
2022/05/12 12:41:08;;;;;;;9.50;3.30;;;;;;;25.35;39.71;98546.31;220885;1274;24229;-70
2022/05/12 12:46:43;;;;;;;6.90;3.60;;;;;;;25.27;39.62;98544.18;218549;1274;24283;-69
2022/05/12 12:52:04;;;;;;;4.50;3.00;;;;;;;25.15;39.88;98549.74;220605;1276;24184;-70
2022/05/12 12:57:10;;;;;;;6.90;3.30;;;;;;;25.02;39.94;98550.38;220814;1276;22759;-71
2022/05/12 13:02:32;;;;;;;4.90;2.50;;;;;;;24.90;39.66;98557.89;222776;1274;22553;-71
2022/05/12 13:07:37;;;;;;;3.80;2.30;;;;;;;24.78;39.89;98557.55;218764;1275;24292;-70
2022/05/12 13:12:58;;;;;;;6.60;3.00;;;;;;;24.76;40.14;98562.02;219322;1274;22743;-69
2022/05/12 13:18:08;;;;;;;4.30;2.70;;;;;;;24.86;40.18;98566.02;218774;1273;24238;-70
2022/05/12 13:23:40;;;;;;;7.90;2.30;;;;;;;25.02;39.91;98561.80;221798;1275;24217;-70
2022/05/12 13:28:42;;;;;;;9.20;3.10;;;;;;;25.06;39.64;98556.23;218998;1276;22656;-70
2022/05/12 13:34:20;;;;;;;7.70;2.60;;;;;;;25.00;39.39;98560.31;221068;1274;25340;-72
2022/05/12 13:39:53;;;;;;;5.90;2.30;;;;;;;24.92;39.29;98568.43;219207;1274;23093;-71
2022/05/12 13:45:10;;;;;;;4.20;2.00;;;;;;;24.93;39.43;98568.60;221029;1274;23437;-70
2022/05/12 13:50:15;;;;;;;8.80;3.00;;;;;;;24.83;38.91;98575.56;221726;1274;22716;-70
2022/05/12 13:55:26;;;;;;;4.20;1.80;;;;;;;24.69;38.87;98579.98;221058;1275;22753;-70
2022/05/12 14:00:40;;;;;;;4.90;2.10;;;;;;;24.65;39.95;98574.80;221055;1277;22544;-71
2022/05/12 14:05:43;;;;;;;5.00;2.60;;;;;;;24.61;38.97;98577.70;220676;1274;22538;-71
2022/05/12 14:11:03;;;;;;;4.00;2.80;;;;;;;24.63;38.65;98578.96;220587;1274;22697;-71
2022/05/12 14:21:34;;;;;;;11.50;2.90;;;;;;;24.36;38.80;98583.47;220749;1276;22722;-71
2022/05/12 14:26:37;;;;;;;6.60;2.10;;;;;;;24.52;39.04;98581.25;220603;1277;22573;-71
2022/05/12 14:31:46;;;;;;;5.80;2.20;;;;;;;24.63;38.21;98579.89;220704;1275;26457;-69
2022/05/12 14:36:51;;;;;;;5.70;2.10;;;;;;;24.62;38.04;98590.69;221028;1276;22543;-71
2022/05/12 14:41:56;;;;;;;2.80;1.60;;;;;;;24.39;38.02;98589.66;220889;1275;23244;-70
2022/05/12 14:47:04;;;;;;;4.50;1.60;;;;;;;24.12;37.91;98599.95;220736;1275;26643;-71
2022/05/12 14:52:14;;;;;;;6.40;2.30;;;;;;;23.87;38.34;98597.07;220912;1274;22633;-73
2022/05/12 14:57:17;;;;;;;10.80;1.70;;;;;;;23.76;38.39;98603.77;220495;1276;22670;-70
2022/05/12 15:02:37;;;;;;;6.70;2.10;;;;;;;23.79;38.56;98602.31;220633;1276;22550;-70
2022/05/12 15:07:39;;;;;;;3.90;1.50;;;;;;;23.89;38.54;98599.89;220643;1275;22630;-72
2022/05/12 15:12:42;;;;;;;6.70;2.00;;;;;;;23.98;38.32;98605.03;220567;1277;22705;-71
2022/05/12 15:17:46;;;;;;;4.00;1.80;;;;;;;24.11;38.54;98613.55;220578;1274;23879;-71
2022/05/12 15:22:50;;;;;;;1.60;1.50;;;;;;;24.06;37.26;98618.92;220502;1278;22644;-71
2022/05/12 15:27:53;;;;;;;2.50;1.40;;;;;;;23.95;37.33;98621.73;220514;1278;24230;-70
2022/05/12 15:33:11;;;;;;;1.70;1.40;;;;;;;23.86;37.55;98620.49;220550;1275;25263;-70
2022/05/12 15:38:18;;;;;;;3.00;1.30;;;;;;;23.79;37.54;98618.33;220731;1275;22581;-71
2022/05/12 15:43:25;;;;;;;6.10;1.20;;;;;;;23.70;37.25;98616.64;220584;1274;22560;-70
2022/05/12 15:48:32;;;;;;;2.20;1.10;;;;;;;23.48;36.53;98607.41;220576;1275;22627;-71
2022/05/12 15:53:35;;;;;;;3.40;1.20;;;;;;;23.16;36.60;98610.80;220832;1277;24290;-71
2022/05/12 15:58:38;;;;;;;7.30;1.40;;;;;;;22.91;36.71;98616.73;220702;1275;23333;-70
2022/05/12 16:03:40;;;;;;;4.30;1.00;;;;;;;22.73;36.83;98617.64;220645;1276;22577;-70
2022/05/12 16:08:51;;;;;;;2.80;1.30;;;;;;;22.77;36.99;98610.65;219140;1275;22556;-73
2022/05/12 16:14:28;;;;;;;2.50;0.70;;;;;;;22.90;36.18;98621.02;220489;1275;22630;-70
2022/05/12 16:19:32;;;;;;;2.50;1.20;;;;;;;22.92;36.13;98625.55;221560;1276;23383;-71
2022/05/12 16:24:37;;;;;;;2.90;1.10;;;;;;;22.78;36.43;98623.92;220482;1276;23033;-69
2022/05/12 16:29:47;;;;;;;3.40;1.10;;;;;;;22.55;36.40;98627.95;220381;1274;24276;-71
2022/05/12 16:34:51;;;;;;;2.10;0.80;;;;;;;22.52;36.52;98627.55;220380;1274;24148;-71
2022/05/12 16:39:54;;;;;;;3.90;0.80;;;;;;;22.60;36.56;98625.84;220827;1274;22543;-70
2022/05/12 16:44:57;;;;;;;1.80;1.00;;;;;;;22.61;36.53;98622.02;220406;1277;22543;-71
2022/05/12 16:50:04;;;;;;;2.90;1.10;;;;;;;22.58;36.33;98623.23;220471;1277;22884;-71
2022/05/12 16:55:09;;;;;;;2.80;1.20;;;;;;;22.54;35.91;98628.81;220983;1277;24240;-70
2022/05/12 17:00:21;;;;;;;7.20;1.10;;;;;;;22.48;35.71;98641.69;220513;1275;25306;-70
2022/05/12 17:05:30;;;;;;;3.90;1.20;;;;;;;22.30;35.84;98644.95;220442;1277;22583;-70
2022/05/12 17:10:36;;;;;;;1.40;1.00;;;;;;;22.08;35.93;98652.36;220504;1275;24877;-71
2022/05/12 17:15:40;;;;;;;2.60;0.80;;;;;;;21.95;35.50;98652.25;220704;1275;22630;-70
2022/05/12 17:20:50;;;;;;;3.60;1.00;;;;;;;22.02;34.92;98655.00;219127;1275;24264;-71
2022/05/12 17:25:52;;;;;;;2.10;0.90;;;;;;;22.56;34.40;98657.61;220454;1277;22591;-73
2022/05/12 17:30:54;;;;;;;2.50;0.70;;;;;;;22.36;33.62;98661.64;220513;1275;22553;-70
2022/05/12 17:36:07;;;;;;;1.80;0.60;;;;;;;21.88;33.85;98667.81;220454;1276;24234;-71
2022/05/12 17:41:09;;;;;;;2.90;0.60;;;;;;;21.47;34.15;98669.09;220471;1275;22540;-71
2022/05/12 17:46:12;;;;;;;2.40;0.70;;;;;;;21.13;34.63;98666.94;220702;1274;25354;-71
2022/05/12 17:51:15;;;;;;;2.00;0.70;;;;;;;20.84;35.00;98670.21;221461;1276;22570;-71
2022/05/12 17:56:17;;;;;;;1.60;0.80;;;;;;;20.58;35.43;98668.51;220571;1276;22557;-72
2022/05/12 18:01:27;;;;;;;2.80;0.70;;;;;;;20.35;35.72;98673.39;220499;1275;22588;-71
2022/05/12 18:06:36;;;;;;;3.20;0.80;;;;;;;20.11;35.99;98682.98;220550;1277;22597;-71
2022/05/12 18:11:40;;;;;;;2.20;1.40;;;;;;;19.87;36.23;98681.34;220606;1274;22680;-70
2022/05/12 18:16:42;;;;;;;3.70;1.00;;;;;;;19.61;36.44;98683.73;220428;1277;22560;-71
2022/05/12 18:21:45;;;;;;;3.30;0.80;;;;;;;19.38;36.68;98684.55;220343;1278;22551;-71
2022/05/12 18:26:49;;;;;;;2.20;0.80;;;;;;;19.15;36.65;98691.50;220508;1277;24321;-70
2022/05/12 18:31:57;;;;;;;2.60;0.90;;;;;;;18.99;36.82;98696.80;220580;1274;24518;-71
2022/05/12 18:37:00;;;;;;;1.80;0.80;;;;;;;18.82;36.90;98699.13;220902;1274;22570;-71
2022/05/12 18:42:13;;;;;;;1.70;0.70;;;;;;;18.66;37.02;98698.97;220632;1277;22727;-70
2022/05/12 18:47:18;;;;;;;1.60;0.90;;;;;;;18.50;37.08;98701.92;220635;1274;25294;-70
2022/05/12 18:52:21;;;;;;;2.70;1.10;;;;;;;18.35;37.33;98705.73;220637;1274;22559;-70
2022/05/12 18:57:23;;;;;;;3.50;0.90;;;;;;;18.19;37.57;98705.51;220567;1274;26270;-70
2022/05/12 19:02:26;;;;;;;2.10;1.70;;;;;;;18.03;37.86;98716.60;220563;1275;22944;-70
2022/05/12 19:07:28;;;;;;;3.90;1.20;;;;;;;17.87;38.28;98722.30;220420;1277;25425;-70
2022/05/12 19:12:33;;;;;;;1.10;0.80;;;;;;;17.74;38.59;98729.23;218956;1277;22729;-70
2022/05/12 19:17:46;;;;;;;1.70;1.00;;;;;;;17.61;38.81;98736.46;220279;1277;23400;-70
2022/05/12 19:22:51;;;;;;;3.30;1.20;;;;;;;17.47;39.08;98737.92;220890;1277;22570;-70
2022/05/12 19:27:55;;;;;;;3.70;1.50;;;;;;;17.32;39.34;98741.99;220345;1274;22576;-70
2022/05/12 19:33:04;;;;;;;3.80;1.80;;;;;;;17.18;39.55;98738.55;221719;1274;22772;-71
2022/05/12 19:38:07;;;;;;;4.10;3.30;;;;;;;17.04;39.87;98743.95;220499;1274;25402;-72
2022/05/12 19:43:16;;;;;;;2.40;1.60;;;;;;;16.90;39.95;98751.33;220679;1277;22559;-71
2022/05/12 19:48:22;;;;;;;2.00;1.70;;;;;;;16.78;40.37;98751.35;220651;1274;23025;-71
2022/05/12 19:53:28;;;;;;;7.60;4.20;;;;;;;16.66;40.87;98749.02;220781;1277;22665;-69
2022/05/12 19:58:30;;;;;;;5.30;3.70;;;;;;;16.49;41.44;98754.63;220509;1277;24240;-71
2022/05/12 20:03:33;;;;;;;3.70;2.40;;;;;;;16.32;41.58;98759.02;220499;1274;25252;-73
2022/05/12 20:08:50;;;;;;;3.10;2.00;;;;;;;16.18;41.94;98763.27;220432;1275;23368;-72
2022/05/12 20:14:09;;;;;;;3.70;2.20;;;;;;;16.05;42.10;98765.89;220683;1277;22545;-70
2022/05/12 20:19:41;;;;;;;2.90;2.00;;;;;;;15.93;42.34;98770.30;220631;1275;22583;-70
2022/05/12 20:24:46;;;;;;;3.10;2.30;;;;;;;15.82;42.72;98772.15;219196;1275;22707;-71
2022/05/12 20:30:09;;;;;;;4.00;2.30;;;;;;;15.70;43.10;98773.11;220520;1275;25369;-70
2022/05/12 20:35:15;;;;;;;4.40;1.90;;;;;;;15.58;43.66;98775.49;220581;1274;22707;-71
2022/05/12 20:40:22;;;;;;;4.00;2.20;;;;;;;15.50;44.15;98776.84;220402;1274;24254;-71
2022/05/12 20:51:06;;;;;;;5.80;4.00;;;;;;;15.39;44.69;98784.39;221122;1274;22545;-70
2022/05/12 20:56:10;;;;;;;5.70;3.20;;;;;;;15.45;45.39;98790.46;221091;1276;24091;-70
2022/05/12 21:01:17;;;;;;;4.20;2.70;;;;;;;15.48;45.66;98787.77;220895;1274;22577;-71
2022/05/12 21:06:26;;;;;;;5.10;2.80;;;;;;;15.50;45.80;98782.85;220519;1275;22544;-69
2022/05/12 21:11:37;;;;;;;3.90;2.80;;;;;;;15.54;46.11;98791.58;220153;1274;25489;-70
2022/05/12 21:16:54;;;;;;;4.00;2.50;;;;;;;15.57;46.10;98796.21;219378;1274;24260;-71
2022/05/12 21:21:57;;;;;;;4.80;2.60;;;;;;;15.60;46.15;98807.64;220449;1275;22586;-70
2022/05/12 21:27:00;;;;;;;3.40;2.20;;;;;;;15.58;46.16;98801.23;220509;1274;24322;-71
2022/05/12 21:37:52;;;;;;;7.10;3.60;;;;;;;15.51;46.24;98804.02;220529;1274;22592;-70
2022/05/12 21:43:13;;;;;;;5.20;3.50;;;;;;;15.49;46.43;98796.39;220407;1275;22605;-71
2022/05/12 21:48:39;;;;;;;6.90;4.00;;;;;;;15.48;46.63;98796.34;220938;1273;22740;-71
2022/05/12 21:53:53;;;;;;;5.30;3.90;;;;;;;15.46;47.14;98793.34;220673;1275;22561;-71
2022/05/12 22:05:09;;;;;;;13.40;8.50;;;;;;;15.38;47.35;98804.11;219621;1273;25416;-70
2022/05/12 22:10:14;;;;;;;11.60;7.70;;;;;;;15.35;47.44;98803.80;219361;1274;24326;-71
2022/05/12 22:15:17;;;;;;;9.40;5.70;;;;;;;15.30;47.44;98799.27;219255;1274;22753;-70
2022/05/12 22:20:33;;;;;;;8.20;4.80;;;;;;;15.30;48.23;98805.83;219175;1273;25384;-71
2022/05/12 22:25:47;;;;;;;9.60;5.00;;;;;;;15.27;48.66;98803.08;219383;1274;25073;-70
2022/05/12 22:30:50;;;;;;;9.00;5.60;;;;;;;15.27;48.83;98797.06;220400;1276;22730;-71
2022/05/12 22:35:52;;;;;;;10.00;5.40;;;;;;;15.27;49.24;98793.10;220414;1274;24231;-70
2022/05/12 22:40:56;;;;;;;9.00;5.40;;;;;;;15.24;49.49;98790.98;220554;1274;25614;-71
2022/05/12 22:45:58;;;;;;;8.80;5.50;;;;;;;15.16;49.56;98790.64;220411;1274;23247;-71
2022/05/12 22:51:02;;;;;;;9.40;5.60;;;;;;;15.09;49.81;98779.91;220473;1274;27544;-70
2022/05/12 22:56:14;;;;;;;8.00;5.00;;;;;;;15.02;50.11;98785.77;221157;1275;22919;-71
2022/05/12 23:01:22;;;;;;;8.10;4.40;;;;;;;14.94;50.77;98790.52;219956;1274;25674;-71
2022/05/12 23:06:25;;;;;;;7.30;4.50;;;;;;;14.86;51.00;98786.15;218770;1276;22983;-71
2022/05/12 23:11:28;;;;;;;6.80;4.40;;;;;;;14.82;51.01;98792.42;220859;1276;24097;-71
2022/05/12 23:16:42;;;;;;;9.00;4.40;;;;;;;14.77;51.20;98794.45;220516;1274;22575;-70
2022/05/12 23:22:08;;;;;;;;;;;;;;;;;;;;;
2022/05/12 23:27:20;;;;;;;7.80;4.00;;;;;;;14.65;50.86;98785.91;219079;1276;26431;-70
2022/05/12 23:32:50;;;;;;;7.10;3.90;;;;;;;14.61;51.28;98788.25;219364;1274;25423;-69
2022/05/12 23:38:35;;;;;;;7.00;4.10;;;;;;;14.56;51.32;98793.31;219253;1274;25354;-70
2022/05/12 23:44:04;;;;;;;8.20;4.40;;;;;;;14.52;51.50;98785.29;219016;1276;24252;-70
2022/05/12 23:49:30;;;;;;;6.00;4.60;;;;;;;14.45;51.97;98792.17;219360;1274;24229;-70
2022/05/12 23:54:40;;;;;;;8.20;4.70;;;;;;;14.39;52.64;98797.67;220583;1274;25396;-71
2022/05/12 23:59:45;;;;;;;8.20;5.40;;;;;;;14.35;53.12;98787.42;220708;1274;24797;-70
